sensor_id;sensor_type;location;lat;lon;timestamp;P1;durP1;ratioP1;P2;durP2;ratioP2
51336;SDS011;37421;51.176;17.196;2022-10-17T00:02:00;0.00;;;0.00;;
51336;SDS011;37421;51.176;17.196;2022-10-17T00:04:25;0.10;;;0.00;;
51336;SDS011;37421;51.176;17.196;2022-10-17T00:06:51;0.05;;;0.05;;
51336;SDS011;37421;51.176;17.196;2022-10-17T00:09:17;0.00;;;0.00;;
51336;SDS011;37421;51.176;17.196;2022-10-17T00:11:43;0.00;;;0.00;;
51336;SDS011;37421;51.176;17.196;2022-10-17T00:14:09;0.00;;;0.00;;
51336;SDS011;37421;51.176;17.196;2022-10-17T00:16:35;0.00;;;0.00;;
51336;SDS011;37421;51.176;17.196;2022-10-17T00:19:03;0.10;;;0.00;;
51336;SDS011;37421;51.176;17.196;2022-10-17T00:21:29;0.00;;;0.00;;
51336;SDS011;37421;51.176;17.196;2022-10-17T00:23:56;0.03;;;0.00;;
51336;SDS011;37421;51.176;17.196;2022-10-17T00:26:23;0.00;;;0.00;;
51336;SDS011;37421;51.176;17.196;2022-10-17T00:28:50;0.10;;;0.00;;
51336;SDS011;37421;51.176;17.196;2022-10-17T00:31:17;0.00;;;0.00;;
51336;SDS011;37421;51.176;17.196;2022-10-17T00:33:44;0.00;;;0.00;;
51336;SDS011;37421;51.176;17.196;2022-10-17T00:36:12;0.00;;;0.00;;
51336;SDS011;37421;51.176;17.196;2022-10-17T00:38:44;0.00;;;0.00;;
51336;SDS011;37421;51.176;17.196;2022-10-17T00:41:13;0.00;;;0.00;;
51336;SDS011;37421;51.176;17.196;2022-10-17T00:46:48;0.10;;;0.00;;
51336;SDS011;37421;51.176;17.196;2022-10-17T00:49:14;0.00;;;0.00;;
51336;SDS011;37421;51.176;17.196;2022-10-17T00:51:41;0.10;;;0.00;;
51336;SDS011;37421;51.176;17.196;2022-10-17T00:54:11;0.00;;;0.00;;
51336;SDS011;37421;51.176;17.196;2022-10-17T00:56:40;0.00;;;0.00;;
51336;SDS011;37421;51.176;17.196;2022-10-17T00:59:07;0.00;;;0.00;;
51336;SDS011;37421;51.176;17.196;2022-10-17T01:01:35;0.00;;;0.00;;
51336;SDS011;37421;51.176;17.196;2022-10-17T01:04:01;0.03;;;0.00;;
51336;SDS011;37421;51.176;17.196;2022-10-17T01:06:27;0.00;;;0.00;;
51336;SDS011;37421;51.176;17.196;2022-10-17T01:08:53;0.00;;;0.00;;
51336;SDS011;37421;51.176;17.196;2022-10-17T01:11:45;0.22;;;0.10;;
51336;SDS011;37421;51.176;17.196;2022-10-17T01:14:20;0.00;;;0.00;;
51336;SDS011;37421;51.176;17.196;2022-10-17T01:19:51;0.00;;;0.00;;
51336;SDS011;37421;51.176;17.196;2022-10-17T01:22:45;0.08;;;0.00;;
51336;SDS011;37421;51.176;17.196;2022-10-17T01:25:33;0.00;;;0.00;;
51336;SDS011;37421;51.176;17.196;2022-10-17T01:30:54;0.00;;;0.00;;
51336;SDS011;37421;51.176;17.196;2022-10-17T01:36:14;0.00;;;0.00;;
51336;SDS011;37421;51.176;17.196;2022-10-17T01:44:48;0.00;;;0.00;;
51336;SDS011;37421;51.176;17.196;2022-10-17T01:47:22;0.03;;;0.00;;
51336;SDS011;37421;51.176;17.196;2022-10-17T01:49:54;0.00;;;0.00;;
51336;SDS011;37421;51.176;17.196;2022-10-17T01:52:27;0.20;;;0.03;;
51336;SDS011;37421;51.176;17.196;2022-10-17T01:55:22;0.00;;;0.00;;
51336;SDS011;37421;51.176;17.196;2022-10-17T01:57:56;0.00;;;0.00;;
51336;SDS011;37421;51.176;17.196;2022-10-17T02:00:33;0.00;;;0.00;;
51336;SDS011;37421;51.176;17.196;2022-10-17T02:03:03;0.00;;;0.00;;
51336;SDS011;37421;51.176;17.196;2022-10-17T02:05:34;0.00;;;0.00;;
51336;SDS011;37421;51.176;17.196;2022-10-17T02:08:05;0.00;;;0.00;;
51336;SDS011;37421;51.176;17.196;2022-10-17T02:21:38;0.10;;;0.10;;
51336;SDS011;37421;51.176;17.196;2022-10-17T02:29:18;0.00;;;0.00;;
51336;SDS011;37421;51.176;17.196;2022-10-17T02:31:57;0.00;;;0.00;;
51336;SDS011;37421;51.176;17.196;2022-10-17T02:34:35;0.00;;;0.00;;
51336;SDS011;37421;51.176;17.196;2022-10-17T02:37:06;0.00;;;0.00;;
51336;SDS011;37421;51.176;17.196;2022-10-17T02:39:36;0.00;;;0.00;;
51336;SDS011;37421;51.176;17.196;2022-10-17T02:42:05;0.00;;;0.00;;
51336;SDS011;37421;51.176;17.196;2022-10-17T02:44:35;0.00;;;0.00;;
51336;SDS011;37421;51.176;17.196;2022-10-17T02:50:08;0.00;;;0.00;;
51336;SDS011;37421;51.176;17.196;2022-10-17T02:52:51;0.08;;;0.00;;
51336;SDS011;37421;51.176;17.196;2022-10-17T02:55:32;0.00;;;0.00;;
51336;SDS011;37421;51.176;17.196;2022-10-17T02:58:10;0.30;;;0.03;;
51336;SDS011;37421;51.176;17.196;2022-10-17T03:00:43;0.00;;;0.00;;
51336;SDS011;37421;51.176;17.196;2022-10-17T03:06:05;0.00;;;0.00;;
51336;SDS011;37421;51.176;17.196;2022-10-17T03:08:31;0.10;;;0.00;;
51336;SDS011;37421;51.176;17.196;2022-10-17T03:10:57;0.00;;;0.00;;
51336;SDS011;37421;51.176;17.196;2022-10-17T03:13:23;0.00;;;0.00;;
51336;SDS011;37421;51.176;17.196;2022-10-17T03:15:49;0.00;;;0.00;;
51336;SDS011;37421;51.176;17.196;2022-10-17T03:18:15;0.00;;;0.00;;
51336;SDS011;37421;51.176;17.196;2022-10-17T03:20:41;0.00;;;0.00;;
51336;SDS011;37421;51.176;17.196;2022-10-17T03:23:07;0.00;;;0.00;;
51336;SDS011;37421;51.176;17.196;2022-10-17T03:25:33;0.00;;;0.00;;
51336;SDS011;37421;51.176;17.196;2022-10-17T03:28:00;0.00;;;0.00;;
51336;SDS011;37421;51.176;17.196;2022-10-17T03:30:26;0.00;;;0.00;;
51336;SDS011;37421;51.176;17.196;2022-10-17T03:32:52;0.00;;;0.00;;
51336;SDS011;37421;51.176;17.196;2022-10-17T03:35:18;0.00;;;0.00;;
51336;SDS011;37421;51.176;17.196;2022-10-17T03:37:44;0.22;;;0.10;;
51336;SDS011;37421;51.176;17.196;2022-10-17T03:40:10;0.10;;;0.05;;
51336;SDS011;37421;51.176;17.196;2022-10-17T03:42:36;0.00;;;0.00;;
51336;SDS011;37421;51.176;17.196;2022-10-17T03:45:03;0.03;;;0.00;;
51336;SDS011;37421;51.176;17.196;2022-10-17T03:47:29;0.45;;;0.10;;
51336;SDS011;37421;51.176;17.196;2022-10-17T03:49:55;0.00;;;0.00;;
51336;SDS011;37421;51.176;17.196;2022-10-17T03:52:21;0.68;;;0.00;;
51336;SDS011;37421;51.176;17.196;2022-10-17T03:54:48;0.00;;;0.00;;
51336;SDS011;37421;51.176;17.196;2022-10-17T03:57:15;0.13;;;0.03;;
51336;SDS011;37421;51.176;17.196;2022-10-17T03:59:41;0.00;;;0.00;;
51336;SDS011;37421;51.176;17.196;2022-10-17T04:02:07;0.00;;;0.00;;
51336;SDS011;37421;51.176;17.196;2022-10-17T04:04:33;0.00;;;0.00;;
51336;SDS011;37421;51.176;17.196;2022-10-17T04:06:59;0.00;;;0.00;;
51336;SDS011;37421;51.176;17.196;2022-10-17T04:09:26;0.00;;;0.00;;
51336;SDS011;37421;51.176;17.196;2022-10-17T04:11:51;0.00;;;0.00;;
51336;SDS011;37421;51.176;17.196;2022-10-17T04:14:18;0.10;;;0.00;;
51336;SDS011;37421;51.176;17.196;2022-10-17T04:16:43;0.03;;;0.00;;
51336;SDS011;37421;51.176;17.196;2022-10-17T04:19:11;0.13;;;0.00;;
51336;SDS011;37421;51.176;17.196;2022-10-17T04:21:37;0.00;;;0.00;;
51336;SDS011;37421;51.176;17.196;2022-10-17T04:24:04;0.05;;;0.00;;
51336;SDS011;37421;51.176;17.196;2022-10-17T04:26:30;0.00;;;0.00;;
51336;SDS011;37421;51.176;17.196;2022-10-17T04:28:56;0.00;;;0.00;;
51336;SDS011;37421;51.176;17.196;2022-10-17T04:31:22;0.08;;;0.00;;
51336;SDS011;37421;51.176;17.196;2022-10-17T04:33:48;0.00;;;0.00;;
51336;SDS011;37421;51.176;17.196;2022-10-17T04:36:16;0.00;;;0.00;;
51336;SDS011;37421;51.176;17.196;2022-10-17T04:38:43;0.00;;;0.00;;
51336;SDS011;37421;51.176;17.196;2022-10-17T04:41:11;0.00;;;0.00;;
51336;SDS011;37421;51.176;17.196;2022-10-17T04:43:38;0.55;;;0.00;;
51336;SDS011;37421;51.176;17.196;2022-10-17T04:46:10;0.00;;;0.00;;
51336;SDS011;37421;51.176;17.196;2022-10-17T04:48:38;0.00;;;0.00;;
51336;SDS011;37421;51.176;17.196;2022-10-17T04:51:05;0.45;;;0.00;;
51336;SDS011;37421;51.176;17.196;2022-10-17T04:53:34;0.10;;;0.00;;
51336;SDS011;37421;51.176;17.196;2022-10-17T04:56:06;0.00;;;0.00;;
51336;SDS011;37421;51.176;17.196;2022-10-17T04:58:33;0.13;;;0.00;;
51336;SDS011;37421;51.176;17.196;2022-10-17T05:01:02;0.00;;;0.00;;
51336;SDS011;37421;51.176;17.196;2022-10-17T05:03:30;0.05;;;0.00;;
51336;SDS011;37421;51.176;17.196;2022-10-17T05:05:56;0.00;;;0.00;;
51336;SDS011;37421;51.176;17.196;2022-10-17T05:08:22;0.10;;;0.00;;
51336;SDS011;37421;51.176;17.196;2022-10-17T05:10:48;0.00;;;0.00;;
51336;SDS011;37421;51.176;17.196;2022-10-17T05:13:14;0.03;;;0.00;;
51336;SDS011;37421;51.176;17.196;2022-10-17T05:15:40;0.00;;;0.00;;
51336;SDS011;37421;51.176;17.196;2022-10-17T05:18:06;0.00;;;0.00;;
51336;SDS011;37421;51.176;17.196;2022-10-17T05:20:32;0.10;;;0.00;;
51336;SDS011;37421;51.176;17.196;2022-10-17T05:22:58;0.00;;;0.00;;
51336;SDS011;37421;51.176;17.196;2022-10-17T05:25:24;0.00;;;0.00;;
51336;SDS011;37421;51.176;17.196;2022-10-17T05:27:50;0.00;;;0.00;;
51336;SDS011;37421;51.176;17.196;2022-10-17T05:30:17;0.00;;;0.00;;
51336;SDS011;37421;51.176;17.196;2022-10-17T05:32:43;0.00;;;0.00;;
51336;SDS011;37421;51.176;17.196;2022-10-17T05:35:09;0.00;;;0.00;;
51336;SDS011;37421;51.176;17.196;2022-10-17T05:37:35;0.10;;;0.10;;
51336;SDS011;37421;51.176;17.196;2022-10-17T05:40:01;0.25;;;0.03;;
51336;SDS011;37421;51.176;17.196;2022-10-17T05:42:27;0.00;;;0.00;;
51336;SDS011;37421;51.176;17.196;2022-10-17T05:44:53;0.00;;;0.00;;
51336;SDS011;37421;51.176;17.196;2022-10-17T05:47:18;0.10;;;0.00;;
51336;SDS011;37421;51.176;17.196;2022-10-17T05:49:44;0.00;;;0.00;;
51336;SDS011;37421;51.176;17.196;2022-10-17T05:52:10;0.00;;;0.00;;
51336;SDS011;37421;51.176;17.196;2022-10-17T05:54:36;0.00;;;0.00;;
51336;SDS011;37421;51.176;17.196;2022-10-17T05:57:02;0.00;;;0.00;;
51336;SDS011;37421;51.176;17.196;2022-10-17T05:59:28;0.00;;;0.00;;
51336;SDS011;37421;51.176;17.196;2022-10-17T06:01:54;0.00;;;0.00;;
51336;SDS011;37421;51.176;17.196;2022-10-17T06:04:20;0.00;;;0.00;;
51336;SDS011;37421;51.176;17.196;2022-10-17T06:06:45;0.00;;;0.00;;
51336;SDS011;37421;51.176;17.196;2022-10-17T06:09:11;0.47;;;0.00;;
51336;SDS011;37421;51.176;17.196;2022-10-17T06:11:37;0.00;;;0.00;;
51336;SDS011;37421;51.176;17.196;2022-10-17T06:14:03;0.00;;;0.00;;
51336;SDS011;37421;51.176;17.196;2022-10-17T06:16:29;0.08;;;0.00;;
51336;SDS011;37421;51.176;17.196;2022-10-17T06:18:55;0.00;;;0.00;;
51336;SDS011;37421;51.176;17.196;2022-10-17T06:21:23;0.00;;;0.00;;
51336;SDS011;37421;51.176;17.196;2022-10-17T06:23:50;0.08;;;0.00;;
51336;SDS011;37421;51.176;17.196;2022-10-17T06:26:17;0.10;;;0.10;;
51336;SDS011;37421;51.176;17.196;2022-10-17T06:28:43;0.30;;;0.00;;
51336;SDS011;37421;51.176;17.196;2022-10-17T06:31:11;0.10;;;0.05;;
51336;SDS011;37421;51.176;17.196;2022-10-17T06:33:38;0.00;;;0.00;;
51336;SDS011;37421;51.176;17.196;2022-10-17T06:36:05;0.00;;;0.00;;
51336;SDS011;37421;51.176;17.196;2022-10-17T06:38:33;0.00;;;0.00;;
51336;SDS011;37421;51.176;17.196;2022-10-17T06:41:03;0.00;;;0.00;;
51336;SDS011;37421;51.176;17.196;2022-10-17T06:43:33;0.00;;;0.00;;
51336;SDS011;37421;51.176;17.196;2022-10-17T06:46:03;0.10;;;0.10;;
51336;SDS011;37421;51.176;17.196;2022-10-17T06:48:29;0.20;;;0.10;;
51336;SDS011;37421;51.176;17.196;2022-10-17T06:51:02;0.00;;;0.00;;
51336;SDS011;37421;51.176;17.196;2022-10-17T06:53:31;0.00;;;0.00;;
51336;SDS011;37421;51.176;17.196;2022-10-17T06:55:58;0.00;;;0.00;;
51336;SDS011;37421;51.176;17.196;2022-10-17T06:58:29;0.63;;;0.03;;
51336;SDS011;37421;51.176;17.196;2022-10-17T07:01:00;0.00;;;0.00;;
51336;SDS011;37421;51.176;17.196;2022-10-17T07:03:31;0.10;;;0.10;;
51336;SDS011;37421;51.176;17.196;2022-10-17T07:05:57;0.13;;;0.10;;
51336;SDS011;37421;51.176;17.196;2022-10-17T07:08:23;0.38;;;0.10;;
51336;SDS011;37421;51.176;17.196;2022-10-17T07:10:49;0.10;;;0.00;;
51336;SDS011;37421;51.176;17.196;2022-10-17T07:13:16;0.40;;;0.10;;
51336;SDS011;37421;51.176;17.196;2022-10-17T07:15:42;0.00;;;0.00;;
51336;SDS011;37421;51.176;17.196;2022-10-17T07:18:08;0.40;;;0.10;;
51336;SDS011;37421;51.176;17.196;2022-10-17T07:20:35;0.10;;;0.00;;
51336;SDS011;37421;51.176;17.196;2022-10-17T07:23:01;0.30;;;0.20;;
51336;SDS011;37421;51.176;17.196;2022-10-17T07:25:27;0.10;;;0.10;;
51336;SDS011;37421;51.176;17.196;2022-10-17T07:27:53;0.10;;;0.10;;
51336;SDS011;37421;51.176;17.196;2022-10-17T07:30:20;2.22;;;0.10;;
51336;SDS011;37421;51.176;17.196;2022-10-17T07:32:46;0.28;;;0.13;;
51336;SDS011;37421;51.176;17.196;2022-10-17T07:35:12;0.30;;;0.13;;
51336;SDS011;37421;51.176;17.196;2022-10-17T07:37:39;0.38;;;0.10;;
51336;SDS011;37421;51.176;17.196;2022-10-17T07:40:06;0.13;;;0.10;;
51336;SDS011;37421;51.176;17.196;2022-10-17T07:42:37;0.88;;;0.10;;
51336;SDS011;37421;51.176;17.196;2022-10-17T07:45:03;0.10;;;0.10;;
51336;SDS011;37421;51.176;17.196;2022-10-17T07:47:30;0.28;;;0.17;;
51336;SDS011;37421;51.176;17.196;2022-10-17T07:49:59;0.47;;;0.10;;
51336;SDS011;37421;51.176;17.196;2022-10-17T07:52:26;0.40;;;0.20;;
51336;SDS011;37421;51.176;17.196;2022-10-17T07:54:52;3.40;;;0.30;;
51336;SDS011;37421;51.176;17.196;2022-10-17T07:57:17;0.52;;;0.10;;
51336;SDS011;37421;51.176;17.196;2022-10-17T07:59:43;0.20;;;0.10;;
51336;SDS011;37421;51.176;17.196;2022-10-17T08:02:16;0.10;;;0.00;;
51336;SDS011;37421;51.176;17.196;2022-10-17T08:04:47;0.22;;;0.10;;
51336;SDS011;37421;51.176;17.196;2022-10-17T08:07:13;0.20;;;0.10;;
51336;SDS011;37421;51.176;17.196;2022-10-17T08:09:40;0.20;;;0.10;;
51336;SDS011;37421;51.176;17.196;2022-10-17T08:12:07;0.38;;;0.20;;
51336;SDS011;37421;51.176;17.196;2022-10-17T08:14:33;0.10;;;0.08;;
51336;SDS011;37421;51.176;17.196;2022-10-17T08:16:58;0.05;;;0.00;;
51336;SDS011;37421;51.176;17.196;2022-10-17T08:19:24;0.10;;;0.03;;
51336;SDS011;37421;51.176;17.196;2022-10-17T08:21:50;0.43;;;0.20;;
51336;SDS011;37421;51.176;17.196;2022-10-17T08:24:18;0.10;;;0.10;;
51336;SDS011;37421;51.176;17.196;2022-10-17T08:26:44;0.25;;;0.15;;
51336;SDS011;37421;51.176;17.196;2022-10-17T08:29:13;0.10;;;0.10;;
51336;SDS011;37421;51.176;17.196;2022-10-17T08:31:40;0.25;;;0.20;;
51336;SDS011;37421;51.176;17.196;2022-10-17T08:34:06;0.00;;;0.00;;
51336;SDS011;37421;51.176;17.196;2022-10-17T08:36:32;0.20;;;0.10;;
51336;SDS011;37421;51.176;17.196;2022-10-17T08:38:58;0.50;;;0.13;;
51336;SDS011;37421;51.176;17.196;2022-10-17T08:46:57;0.40;;;0.10;;
51336;SDS011;37421;51.176;17.196;2022-10-17T08:49:36;0.35;;;0.10;;
51336;SDS011;37421;51.176;17.196;2022-10-17T08:52:29;0.30;;;0.13;;
51336;SDS011;37421;51.176;17.196;2022-10-17T08:54:51;0.20;;;0.17;;
51336;SDS011;37421;51.176;17.196;2022-10-17T08:57:17;0.00;;;0.00;;
51336;SDS011;37421;51.176;17.196;2022-10-17T08:59:43;0.10;;;0.10;;
51336;SDS011;37421;51.176;17.196;2022-10-17T09:02:35;0.00;;;0.00;;
51336;SDS011;37421;51.176;17.196;2022-10-17T09:05:08;0.43;;;0.25;;
51336;SDS011;37421;51.176;17.196;2022-10-17T09:12:50;0.32;;;0.20;;
51336;SDS011;37421;51.176;17.196;2022-10-17T09:21:42;0.30;;;0.15;;
51336;SDS011;37421;51.176;17.196;2022-10-17T09:24:20;0.40;;;0.10;;
51336;SDS011;37421;51.176;17.196;2022-10-17T09:27:50;0.65;;;0.10;;
51336;SDS011;37421;51.176;17.196;2022-10-17T09:32:47;0.10;;;0.10;;
51336;SDS011;37421;51.176;17.196;2022-10-17T09:35:13;0.32;;;0.20;;
51336;SDS011;37421;51.176;17.196;2022-10-17T09:37:39;0.20;;;0.10;;
51336;SDS011;37421;51.176;17.196;2022-10-17T09:40:07;0.08;;;0.08;;
51336;SDS011;37421;51.176;17.196;2022-10-17T09:42:43;0.08;;;0.08;;
51336;SDS011;37421;51.176;17.196;2022-10-17T09:45:16;0.30;;;0.10;;
51336;SDS011;37421;51.176;17.196;2022-10-17T09:48:13;0.20;;;0.10;;
51336;SDS011;37421;51.176;17.196;2022-10-17T09:50:49;0.20;;;0.03;;
51336;SDS011;37421;51.176;17.196;2022-10-17T09:56:14;0.30;;;0.15;;
51336;SDS011;37421;51.176;17.196;2022-10-17T09:58:43;0.10;;;0.10;;
51336;SDS011;37421;51.176;17.196;2022-10-17T10:01:15;0.10;;;0.10;;
51336;SDS011;37421;51.176;17.196;2022-10-17T10:03:49;0.20;;;0.20;;
51336;SDS011;37421;51.176;17.196;2022-10-17T10:06:38;0.10;;;0.05;;
51336;SDS011;37421;51.176;17.196;2022-10-17T10:09:05;0.10;;;0.10;;
51336;SDS011;37421;51.176;17.196;2022-10-17T10:11:49;0.22;;;0.10;;
51336;SDS011;37421;51.176;17.196;2022-10-17T10:14:36;1.00;;;0.15;;
51336;SDS011;37421;51.176;17.196;2022-10-17T10:17:25;0.20;;;0.10;;
51336;SDS011;37421;51.176;17.196;2022-10-17T10:23:13;0.08;;;0.05;;
51336;SDS011;37421;51.176;17.196;2022-10-17T10:25:58;0.30;;;0.10;;
51336;SDS011;37421;51.176;17.196;2022-10-17T10:28:28;0.47;;;0.10;;
51336;SDS011;37421;51.176;17.196;2022-10-17T10:31:02;0.10;;;0.10;;
51336;SDS011;37421;51.176;17.196;2022-10-17T10:33:49;0.40;;;0.20;;
51336;SDS011;37421;51.176;17.196;2022-10-17T10:38:55;0.10;;;0.10;;
51336;SDS011;37421;51.176;17.196;2022-10-17T10:41:25;0.15;;;0.08;;
51336;SDS011;37421;51.176;17.196;2022-10-17T10:43:55;0.00;;;0.00;;
51336;SDS011;37421;51.176;17.196;2022-10-17T10:46:26;0.32;;;0.00;;
51336;SDS011;37421;51.176;17.196;2022-10-17T10:49:33;0.00;;;0.00;;
51336;SDS011;37421;51.176;17.196;2022-10-17T10:52:28;0.22;;;0.03;;
51336;SDS011;37421;51.176;17.196;2022-10-17T10:58:18;0.13;;;0.00;;
51336;SDS011;37421;51.176;17.196;2022-10-17T11:07:13;0.10;;;0.10;;
51336;SDS011;37421;51.176;17.196;2022-10-17T11:10:14;0.10;;;0.00;;
51336;SDS011;37421;51.176;17.196;2022-10-17T11:12:53;0.00;;;0.00;;
51336;SDS011;37421;51.176;17.196;2022-10-17T11:18:34;0.08;;;0.00;;
51336;SDS011;37421;51.176;17.196;2022-10-17T11:24:00;0.10;;;0.10;;
51336;SDS011;37421;51.176;17.196;2022-10-17T11:26:34;0.17;;;0.10;;
51336;SDS011;37421;51.176;17.196;2022-10-17T11:29:08;0.00;;;0.00;;
51336;SDS011;37421;51.176;17.196;2022-10-17T11:31:38;0.00;;;0.00;;
51336;SDS011;37421;51.176;17.196;2022-10-17T11:34:16;0.10;;;0.10;;
51336;SDS011;37421;51.176;17.196;2022-10-17T11:36:48;0.10;;;0.00;;
51336;SDS011;37421;51.176;17.196;2022-10-17T11:40:01;0.10;;;0.05;;
51336;SDS011;37421;51.176;17.196;2022-10-17T11:42:14;0.43;;;0.10;;
51336;SDS011;37421;51.176;17.196;2022-10-17T11:44:51;0.13;;;0.03;;
51336;SDS011;37421;51.176;17.196;2022-10-17T11:47:36;0.00;;;0.00;;
51336;SDS011;37421;51.176;17.196;2022-10-17T11:50:15;0.00;;;0.00;;
51336;SDS011;37421;51.176;17.196;2022-10-17T11:55:30;0.25;;;0.08;;
51336;SDS011;37421;51.176;17.196;2022-10-17T12:01:04;0.25;;;0.00;;
51336;SDS011;37421;51.176;17.196;2022-10-17T12:12:07;0.13;;;0.10;;
51336;SDS011;37421;51.176;17.196;2022-10-17T12:19:46;0.10;;;0.10;;
51336;SDS011;37421;51.176;17.196;2022-10-17T12:22:22;0.00;;;0.00;;
51336;SDS011;37421;51.176;17.196;2022-10-17T12:24:53;0.00;;;0.00;;
51336;SDS011;37421;51.176;17.196;2022-10-17T12:27:30;0.10;;;0.00;;
51336;SDS011;37421;51.176;17.196;2022-10-17T12:30:03;0.10;;;0.00;;
51336;SDS011;37421;51.176;17.196;2022-10-17T12:32:32;0.00;;;0.00;;
51336;SDS011;37421;51.176;17.196;2022-10-17T12:34:58;0.20;;;0.00;;
51336;SDS011;37421;51.176;17.196;2022-10-17T12:51:03;0.20;;;0.10;;
51336;SDS011;37421;51.176;17.196;2022-10-17T12:56:09;0.00;;;0.00;;
51336;SDS011;37421;51.176;17.196;2022-10-17T12:58:36;0.10;;;0.10;;
51336;SDS011;37421;51.176;17.196;2022-10-17T13:01:17;0.20;;;0.10;;
51336;SDS011;37421;51.176;17.196;2022-10-17T13:03:50;0.08;;;0.08;;
51336;SDS011;37421;51.176;17.196;2022-10-17T13:06:27;0.20;;;0.10;;
51336;SDS011;37421;51.176;17.196;2022-10-17T13:08:58;0.15;;;0.15;;
51336;SDS011;37421;51.176;17.196;2022-10-17T13:11:27;0.17;;;0.17;;
51336;SDS011;37421;51.176;17.196;2022-10-17T13:13:57;0.20;;;0.20;;
51336;SDS011;37421;51.176;17.196;2022-10-17T13:16:33;0.08;;;0.08;;
51336;SDS011;37421;51.176;17.196;2022-10-17T13:19:02;0.05;;;0.05;;
51336;SDS011;37421;51.176;17.196;2022-10-17T13:21:37;0.15;;;0.15;;
51336;SDS011;37421;51.176;17.196;2022-10-17T13:24:22;0.15;;;0.15;;
51336;SDS011;37421;51.176;17.196;2022-10-17T13:26:53;0.10;;;0.10;;
51336;SDS011;37421;51.176;17.196;2022-10-17T13:29:24;0.00;;;0.00;;
51336;SDS011;37421;51.176;17.196;2022-10-17T13:34:22;0.10;;;0.10;;
51336;SDS011;37421;51.176;17.196;2022-10-17T13:36:51;0.10;;;0.10;;
51336;SDS011;37421;51.176;17.196;2022-10-17T13:39:22;0.10;;;0.10;;
51336;SDS011;37421;51.176;17.196;2022-10-17T13:41:52;0.10;;;0.10;;
51336;SDS011;37421;51.176;17.196;2022-10-17T13:44:20;0.10;;;0.10;;
51336;SDS011;37421;51.176;17.196;2022-10-17T13:46:48;0.15;;;0.08;;
51336;SDS011;37421;51.176;17.196;2022-10-17T13:51:48;0.10;;;0.10;;
51336;SDS011;37421;51.176;17.196;2022-10-17T13:54:17;0.20;;;0.20;;
51336;SDS011;37421;51.176;17.196;2022-10-17T13:56:57;0.10;;;0.10;;
51336;SDS011;37421;51.176;17.196;2022-10-17T13:59:25;0.30;;;0.20;;
51336;SDS011;37421;51.176;17.196;2022-10-17T14:01:57;0.30;;;0.13;;
51336;SDS011;37421;51.176;17.196;2022-10-17T14:04:25;0.20;;;0.20;;
51336;SDS011;37421;51.176;17.196;2022-10-17T14:07:01;0.20;;;0.20;;
51336;SDS011;37421;51.176;17.196;2022-10-17T14:09:38;0.10;;;0.10;;
51336;SDS011;37421;51.176;17.196;2022-10-17T14:12:08;0.10;;;0.10;;
51336;SDS011;37421;51.176;17.196;2022-10-17T14:14:45;0.10;;;0.10;;
51336;SDS011;37421;51.176;17.196;2022-10-17T14:17:22;0.10;;;0.10;;
51336;SDS011;37421;51.176;17.196;2022-10-17T14:19:55;1.55;;;0.20;;
51336;SDS011;37421;51.176;17.196;2022-10-17T14:22:28;0.10;;;0.10;;
51336;SDS011;37421;51.176;17.196;2022-10-17T14:24:58;0.05;;;0.05;;
51336;SDS011;37421;51.176;17.196;2022-10-17T14:29:54;0.20;;;0.20;;
51336;SDS011;37421;51.176;17.196;2022-10-17T14:32:28;0.20;;;0.20;;
51336;SDS011;37421;51.176;17.196;2022-10-17T14:34:58;0.10;;;0.10;;
51336;SDS011;37421;51.176;17.196;2022-10-17T14:40:27;0.10;;;0.10;;
51336;SDS011;37421;51.176;17.196;2022-10-17T14:42:55;0.05;;;0.03;;
51336;SDS011;37421;51.176;17.196;2022-10-17T14:45:31;0.10;;;0.10;;
51336;SDS011;37421;51.176;17.196;2022-10-17T14:48:06;0.28;;;0.08;;
51336;SDS011;37421;51.176;17.196;2022-10-17T14:50:38;0.10;;;0.10;;
51336;SDS011;37421;51.176;17.196;2022-10-17T14:53:11;0.10;;;0.05;;
51336;SDS011;37421;51.176;17.196;2022-10-17T14:55:55;0.15;;;0.00;;
51336;SDS011;37421;51.176;17.196;2022-10-17T14:58:24;0.10;;;0.10;;
51336;SDS011;37421;51.176;17.196;2022-10-17T15:00:55;0.00;;;0.00;;
51336;SDS011;37421;51.176;17.196;2022-10-17T15:03:23;0.13;;;0.10;;
51336;SDS011;37421;51.176;17.196;2022-10-17T15:05:49;0.10;;;0.10;;
51336;SDS011;37421;51.176;17.196;2022-10-17T15:08:31;0.00;;;0.00;;
51336;SDS011;37421;51.176;17.196;2022-10-17T15:11:00;0.17;;;0.10;;
51336;SDS011;37421;51.176;17.196;2022-10-17T15:13:37;0.10;;;0.10;;
51336;SDS011;37421;51.176;17.196;2022-10-17T15:16:14;0.52;;;0.10;;
51336;SDS011;37421;51.176;17.196;2022-10-17T15:18:52;0.20;;;0.10;;
51336;SDS011;37421;51.176;17.196;2022-10-17T15:21:19;0.10;;;0.10;;
51336;SDS011;37421;51.176;17.196;2022-10-17T15:23:46;0.00;;;0.00;;
51336;SDS011;37421;51.176;17.196;2022-10-17T15:26:14;0.22;;;0.20;;
51336;SDS011;37421;51.176;17.196;2022-10-17T15:28:46;1.10;;;0.95;;
51336;SDS011;37421;51.176;17.196;2022-10-17T15:31:14;2.03;;;1.70;;
51336;SDS011;37421;51.176;17.196;2022-10-17T15:33:45;2.35;;;2.00;;
51336;SDS011;37421;51.176;17.196;2022-10-17T15:38:49;5.32;;;4.53;;
51336;SDS011;37421;51.176;17.196;2022-10-17T15:44:12;8.05;;;7.25;;
51336;SDS011;37421;51.176;17.196;2022-10-17T15:46:38;9.77;;;8.38;;
51336;SDS011;37421;51.176;17.196;2022-10-17T15:49:08;9.02;;;8.13;;
51336;SDS011;37421;51.176;17.196;2022-10-17T15:51:38;10.20;;;9.18;;
51336;SDS011;37421;51.176;17.196;2022-10-17T15:54:05;10.05;;;8.93;;
51336;SDS011;37421;51.176;17.196;2022-10-17T15:56:32;11.32;;;9.40;;
51336;SDS011;37421;51.176;17.196;2022-10-17T15:59:15;11.10;;;9.65;;
51336;SDS011;37421;51.176;17.196;2022-10-17T16:01:50;10.25;;;9.10;;
51336;SDS011;37421;51.176;17.196;2022-10-17T16:04:25;12.20;;;9.30;;
51336;SDS011;37421;51.176;17.196;2022-10-17T16:06:53;12.02;;;10.52;;
51336;SDS011;37421;51.176;17.196;2022-10-17T16:09:21;11.02;;;9.90;;
51336;SDS011;37421;51.176;17.196;2022-10-17T16:11:53;11.93;;;10.63;;
51336;SDS011;37421;51.176;17.196;2022-10-17T16:14:19;17.77;;;11.55;;
51336;SDS011;37421;51.176;17.196;2022-10-17T16:16:45;14.93;;;12.93;;
51336;SDS011;37421;51.176;17.196;2022-10-17T16:19:22;18.00;;;13.93;;
51336;SDS011;37421;51.176;17.196;2022-10-17T16:21:55;19.08;;;13.48;;
51336;SDS011;37421;51.176;17.196;2022-10-17T16:24:23;15.65;;;13.45;;
51336;SDS011;37421;51.176;17.196;2022-10-17T16:26:49;15.02;;;12.77;;
51336;SDS011;37421;51.176;17.196;2022-10-17T16:29:15;16.73;;;13.23;;
51336;SDS011;37421;51.176;17.196;2022-10-17T16:31:53;14.32;;;12.80;;
51336;SDS011;37421;51.176;17.196;2022-10-17T16:34:19;15.82;;;13.27;;
51336;SDS011;37421;51.176;17.196;2022-10-17T16:36:46;16.30;;;13.68;;
51336;SDS011;37421;51.176;17.196;2022-10-17T16:39:11;19.85;;;14.00;;
51336;SDS011;37421;51.176;17.196;2022-10-17T16:41:38;15.30;;;13.20;;
51336;SDS011;37421;51.176;17.196;2022-10-17T16:44:05;17.48;;;13.60;;
51336;SDS011;37421;51.176;17.196;2022-10-17T16:46:34;18.38;;;13.43;;
51336;SDS011;37421;51.176;17.196;2022-10-17T16:49:02;16.08;;;13.60;;
51336;SDS011;37421;51.176;17.196;2022-10-17T16:51:29;16.38;;;13.13;;
51336;SDS011;37421;51.176;17.196;2022-10-17T16:53:58;15.13;;;12.88;;
51336;SDS011;37421;51.176;17.196;2022-10-17T16:56:29;16.75;;;13.20;;
51336;SDS011;37421;51.176;17.196;2022-10-17T16:58:57;15.27;;;13.70;;
51336;SDS011;37421;51.176;17.196;2022-10-17T17:01:24;14.82;;;13.30;;
51336;SDS011;37421;51.176;17.196;2022-10-17T17:03:51;14.35;;;12.85;;
51336;SDS011;37421;51.176;17.196;2022-10-17T17:06:25;16.20;;;13.50;;
51336;SDS011;37421;51.176;17.196;2022-10-17T17:08:53;16.15;;;12.93;;